Time;durP1;ratioP1;P1;durP2;ratioP2;P2;SDS_P1;SDS_P2;PMS_P1;PMS_P2;Temp;Humidity;BMP_temperature;BMP_pressure;BME280_temperature;BME280_humidity;BME280_pressure;Samples;Min_cycle;Max_cycle;Signal;HPM_P1;HPM_P2
2021/06/21 00:01:26;;;;;;;6.80;2.60;;;;;;;21.55;71.49;99412.47;6269909;28;20116;-57
2021/06/21 00:04:27;;;;;;;3.23;2.40;;;;;;;21.48;71.61;99414.22;6271108;28;20041;-56
2021/06/21 00:07:28;;;;;;;4.20;2.57;;;;;;;21.40;72.70;99414.25;6270986;28;20793;-56
2021/06/21 00:10:29;;;;;;;6.23;2.93;;;;;;;21.36;72.22;99413.78;6270003;28;20057;-56
2021/06/21 00:13:30;;;;;;;6.87;2.87;;;;;;;21.27;72.50;99413.03;6269802;28;20076;-56
2021/06/21 00:16:31;;;;;;;4.70;2.93;;;;;;;21.18;73.35;99407.94;6269631;28;20502;-56
2021/06/21 00:19:32;;;;;;;4.47;2.72;;;;;;;21.09;74.80;99408.00;6270882;28;20484;-56
2021/06/21 00:22:32;;;;;;;11.73;3.67;;;;;;;20.97;75.43;99400.66;6270786;28;20045;-56
2021/06/21 00:25:33;;;;;;;7.63;3.50;;;;;;;20.97;78.16;99404.13;6270952;28;20068;-56
2021/06/21 00:28:34;;;;;;;8.27;3.50;;;;;;;20.93;77.78;99411.59;6270692;28;20502;-57
2021/06/21 00:31:35;;;;;;;5.93;2.97;;;;;;;20.91;78.41;99408.28;6270768;28;20045;-57
2021/06/21 00:34:36;;;;;;;8.03;3.57;;;;;;;20.91;78.52;99400.34;6269577;28;20416;-56
2021/06/21 00:37:37;;;;;;;4.10;2.93;;;;;;;20.87;78.24;99391.09;6269805;28;20037;-56
2021/06/21 00:40:38;;;;;;;5.28;3.28;;;;;;;20.78;78.93;99396.66;6269525;28;20400;-56
2021/06/21 00:43:39;;;;;;;4.67;3.27;;;;;;;20.74;78.95;99396.16;6270738;28;20049;-57
2021/06/21 00:46:40;;;;;;;8.43;3.40;;;;;;;20.72;79.36;99398.16;6270574;28;20086;-57
2021/06/21 00:49:41;;;;;;;5.40;3.43;;;;;;;20.70;79.38;99402.81;6270553;28;20103;-57
2021/06/21 00:52:42;;;;;;;4.67;3.33;;;;;;;20.70;79.22;99402.81;6270529;28;20041;-57
2021/06/21 00:55:44;;;;;;;6.63;2.90;;;;;;;20.68;79.55;99402.16;6270278;28;20041;-56
2021/06/21 00:58:45;;;;;;;;;;;;;;;20.67;80.82;99404.00;6269766;28;20057;-56
2021/06/21 01:01:46;;;;;;;4.57;3.05;;;;;;;20.59;80.39;99398.75;6270318;28;19920;-56
2021/06/21 01:04:47;;;;;;;5.50;3.43;;;;;;;20.53;80.54;99397.56;6272552;28;20079;-56
2021/06/21 01:07:48;;;;;;;8.33;3.60;;;;;;;20.47;80.94;99387.66;6257303;28;20045;-56
2021/06/21 01:10:52;;;;;;;4.87;3.53;;;;;;;20.45;80.72;99384.38;6274803;28;20115;-56
2021/06/21 01:14:05;;;;;;;8.85;3.78;;;;;;;20.39;82.07;99381.59;6274727;28;20367;-56
2021/06/21 01:17:33;;;;;;;4.57;3.63;;;;;;;20.30;82.28;99386.06;6264790;28;20492;-56
2021/06/21 01:21:16;;;;;;;7.32;3.60;;;;;;;20.24;83.08;99382.31;6249820;28;20128;-56
2021/06/21 01:24:35;;;;;;;6.07;3.38;;;;;;;20.20;82.96;99381.00;6249801;28;20040;-56
2021/06/21 01:27:46;;;;;;;5.32;4.00;;;;;;;20.16;83.64;99378.84;6249830;28;20045;-56
2021/06/21 01:31:13;;;;;;;5.65;3.70;;;;;;;20.17;83.51;99376.03;6249419;28;20458;-56
2021/06/21 01:34:17;;;;;;;7.88;3.80;;;;;;;20.20;83.12;99377.50;6249537;28;20050;-55
2021/06/21 01:37:21;;;;;;;8.93;4.32;;;;;;;20.17;83.63;99372.56;6249322;28;20046;-56
2021/06/21 01:40:23;;;;;;;6.40;3.88;;;;;;;20.19;84.29;99366.09;6249336;28;20112;-57
2021/06/21 01:43:32;;;;;;;6.30;4.30;;;;;;;20.18;83.64;99371.56;6249629;28;20045;-56
2021/06/21 01:46:36;;;;;;;4.38;3.88;;;;;;;20.17;84.93;99376.03;6249172;28;20476;-56
2021/06/21 01:49:40;;;;;;;9.60;3.80;;;;;;;20.17;84.40;99367.28;6249459;28;20408;-55
2021/06/21 01:52:43;;;;;;;6.55;4.28;;;;;;;20.12;84.92;99357.22;6247887;28;20077;-56
2021/06/21 01:56:07;;;;;;;4.70;3.75;;;;;;;20.08;86.17;99356.72;6248837;28;20074;-56
2021/06/21 01:59:09;;;;;;;4.68;3.90;;;;;;;20.06;85.83;99364.00;6247616;28;20084;-55
2021/06/21 02:02:10;;;;;;;;;;;;;;;20.08;85.73;99362.00;6248092;28;20579;-58
2021/06/21 02:05:14;;;;;;;4.22;3.60;;;;;;;19.99;86.23;99376.28;6247818;28;19929;-58
2021/06/21 02:08:19;;;;;;;7.60;3.55;;;;;;;19.96;86.02;99381.09;6248690;28;20049;-57
2021/06/21 02:11:20;;;;;;;7.18;3.78;;;;;;;19.94;85.67;99370.69;6248575;28;20041;-57
2021/06/21 02:14:31;;;;;;;4.22;3.75;;;;;;;19.89;86.12;99362.41;6248642;28;20056;-58
2021/06/21 02:17:33;;;;;;;15.55;7.40;;;;;;;19.79;86.94;99367.06;6247311;28;20045;-57
2021/06/21 02:20:34;;;;;;;18.33;7.70;;;;;;;19.67;87.65;99362.13;6248454;28;20499;-57
2021/06/21 02:23:39;;;;;;;13.93;6.95;;;;;;;19.63;88.19;99363.44;6263926;28;20487;-57
2021/06/21 02:26:41;;;;;;;13.25;6.05;;;;;;;19.61;88.59;99364.63;6248345;28;20045;-57
2021/06/21 02:29:43;;;;;;;7.65;4.97;;;;;;;19.64;88.18;99361.63;6246998;28;20106;-57
2021/06/21 02:32:46;;;;;;;10.35;5.13;;;;;;;19.63;88.45;99362.63;6248133;28;20037;-57
2021/06/21 02:35:48;;;;;;;10.63;4.75;;;;;;;19.70;87.72;99360.94;6263486;28;20054;-57
2021/06/21 02:38:51;;;;;;;;;;;;;;;19.77;87.79;99363.75;6248860;28;20037;-58
2021/06/21 02:41:52;;;;;;;10.15;4.55;;;;;;;19.78;88.42;99355.66;6247885;28;19979;-58
2021/06/21 02:44:52;;;;;;;8.57;4.40;;;;;;;19.81;88.04;99362.44;6247755;28;20077;-57
2021/06/21 02:47:54;;;;;;;7.13;4.47;;;;;;;19.85;88.08;99342.56;6272194;28;20049;-57
2021/06/21 02:50:55;;;;;;;16.33;4.20;;;;;;;19.84;87.82;99352.34;6271555;28;20496;-58
2021/06/21 02:54:01;;;;;;;10.32;4.28;;;;;;;19.80;88.85;99358.16;6272089;28;20119;-58
2021/06/21 02:57:26;;;;;;;7.78;4.70;;;;;;;19.77;88.39;99358.47;6272754;28;20098;-58
2021/06/21 03:00:29;;;;;;;5.50;4.88;;;;;;;19.78;89.02;99346.91;6259688;28;20061;-58
2021/06/21 03:03:38;;;;;;;;;;;;;;;19.82;88.07;99358.81;6248021;28;20060;-58
2021/06/21 03:06:41;;;;;;;6.18;4.63;;;;;;;19.81;87.82;99355.34;6245975;28;19986;-57
2021/06/21 03:09:44;;;;;;;5.50;4.40;;;;;;;19.69;88.83;99360.13;6247313;28;20041;-57
2021/06/21 03:12:47;;;;;;;8.48;4.53;;;;;;;19.71;88.88;99362.63;6246025;28;20508;-58
2021/06/21 03:15:53;;;;;;;11.57;4.55;;;;;;;19.69;89.00;99360.13;6273564;28;20040;-58
2021/06/21 03:18:55;;;;;;;7.05;4.43;;;;;;;19.72;88.30;99362.44;6271762;28;20033;-57
2021/06/21 03:21:57;;;;;;;9.18;4.68;;;;;;;19.72;88.15;99367.75;6271676;28;20052;-57
2021/06/21 03:24:57;;;;;;;8.90;4.53;;;;;;;19.69;88.15;99369.91;6271806;28;20423;-58
2021/06/21 03:28:07;;;;;;;7.00;4.40;;;;;;;19.69;88.73;99370.72;6271214;28;20052;-58
2021/06/21 03:31:09;;;;;;;6.00;4.40;;;;;;;19.71;89.23;99375.88;6271412;28;20057;-58
2021/06/21 03:34:11;;;;;;;7.47;4.75;;;;;;;19.75;88.75;99381.63;6248937;28;20061;-58
2021/06/21 03:37:11;;;;;;;11.68;7.95;;;;;;;19.77;88.42;99384.94;6246769;28;20045;-57
2021/06/21 03:40:13;;;;;;;15.33;8.33;;;;;;;19.79;88.62;99389.09;6261803;28;20558;-57
2021/06/21 03:43:16;;;;;;;9.10;5.70;;;;;;;19.79;88.44;99391.75;6259826;28;20476;-57
2021/06/21 03:46:16;;;;;;;8.02;5.10;;;;;;;19.77;88.33;99396.38;6271208;28;20045;-57
2021/06/21 03:49:17;;;;;;;7.10;4.77;;;;;;;19.76;87.91;99392.06;6257974;28;20041;-57
2021/06/21 03:52:20;;;;;;;8.97;4.67;;;;;;;19.75;87.99;99401.00;6246551;28;20045;-55
2021/06/21 03:55:21;;;;;;;7.03;4.93;;;;;;;19.67;88.84;99409.75;6246500;28;20045;-56
2021/06/21 03:58:22;;;;;;;8.07;5.00;;;;;;;19.66;89.24;99409.91;6251507;28;20093;-57
2021/06/21 04:01:23;;;;;;;7.07;4.57;;;;;;;19.65;89.17;99417.03;6271028;28;20095;-57
2021/06/21 04:04:24;;;;;;;8.75;5.03;;;;;;;19.56;90.44;99417.19;6271101;28;20557;-57
2021/06/21 04:07:25;;;;;;;7.43;5.30;;;;;;;19.66;89.91;99417.84;6269691;28;20507;-57
2021/06/21 04:10:30;;;;;;;9.80;4.35;;;;;;;19.66;89.48;99420.50;6271068;28;20049;-56
2021/06/21 04:13:33;;;;;;;6.23;4.90;;;;;;;19.60;89.15;99422.00;6269981;28;20068;-57
2021/06/21 04:16:34;;;;;;;8.98;4.35;;;;;;;19.66;89.36;99420.50;6269722;28;20399;-57
2021/06/21 04:19:35;;;;;;;11.07;4.70;;;;;;;19.66;89.37;99424.00;6269689;28;20037;-57
2021/06/21 04:22:36;;;;;;;5.23;4.50;;;;;;;19.68;89.64;99424.66;6271047;28;20064;-57
2021/06/21 04:25:38;;;;;;;5.55;3.88;;;;;;;19.71;89.21;99434.91;6270852;28;20052;-57
2021/06/21 04:28:39;;;;;;;6.25;4.07;;;;;;;19.76;88.81;99428.28;6253466;28;20114;-57
2021/06/21 04:31:40;;;;;;;6.77;5.07;;;;;;;19.79;88.47;99428.78;6271029;28;20037;-57
2021/06/21 04:34:41;;;;;;;5.23;4.63;;;;;;;19.84;88.83;99426.44;6270676;28;20102;-57
2021/06/21 04:37:42;;;;;;;8.93;4.13;;;;;;;19.91;88.12;99438.03;6271006;28;20485;-57
2021/06/21 04:40:43;;;;;;;7.47;4.47;;;;;;;19.92;87.81;99439.66;6273182;28;20119;-56
2021/06/21 04:43:43;;;;;;;5.47;4.30;;;;;;;19.96;86.86;99442.00;6249594;28;20073;-57
2021/06/21 04:46:44;;;;;;;8.07;4.10;;;;;;;19.92;86.58;99430.91;6257555;28;20045;-57
2021/06/21 04:49:45;;;;;;;11.67;4.17;;;;;;;20.02;85.81;99430.72;6250982;28;20119;-58
2021/06/21 04:52:48;;;;;;;7.07;4.50;;;;;;;20.03;86.72;99445.59;6273772;28;20118;-58
2021/06/21 04:55:49;;;;;;;7.07;4.47;;;;;;;20.06;85.39;99440.81;6259724;28;20057;-57
2021/06/21 04:58:49;;;;;;;9.90;4.70;;;;;;;20.01;85.91;99444.94;6271358;28;20053;-58
2021/06/21 05:01:50;;;;;;;6.67;4.37;;;;;;;20.09;87.08;99443.09;6275937;28;20357;-57
2021/06/21 05:04:51;;;;;;;10.50;4.80;;;;;;;20.12;85.58;99444.59;6274900;28;20049;-57
2021/06/21 05:07:55;;;;;;;6.18;4.65;;;;;;;20.22;87.00;99447.88;6264474;28;20465;-58
2021/06/21 05:10:56;;;;;;;10.55;5.15;;;;;;;20.31;86.08;99452.13;6249787;28;20137;-58
2021/06/21 05:13:57;;;;;;;10.03;4.93;;;;;;;20.41;85.19;99449.28;6266555;28;20045;-58
2021/06/21 05:16:58;;;;;;;7.67;4.57;;;;;;;20.37;85.24;99449.81;6260276;28;20094;-57
2021/06/21 05:19:58;;;;;;;7.47;4.97;;;;;;;20.38;85.90;99451.47;6274641;28;20154;-57
2021/06/21 05:22:59;;;;;;;7.83;4.97;;;;;;;20.48;85.63;99454.72;6273588;28;20041;-57
2021/06/21 05:26:00;;;;;;;9.60;5.27;;;;;;;20.60;85.29;99448.06;6249117;28;20042;-57
2021/06/21 05:29:01;;;;;;;13.27;5.40;;;;;;;20.65;84.23;99444.91;6249787;28;20049;-56
2021/06/21 05:32:02;;;;;;;11.83;4.87;;;;;;;20.75;84.66;99442.03;6248444;28;20041;-56
2021/06/21 05:35:05;;;;;;;8.03;4.70;;;;;;;20.85;84.80;99446.13;6249475;28;20042;-57
2021/06/21 05:38:06;;;;;;;11.10;5.00;;;;;;;20.94;84.46;99446.91;6254100;28;20041;-55
2021/06/21 05:41:06;;;;;;;10.33;4.97;;;;;;;21.05;82.45;99443.03;6273473;28;20052;-56
2021/06/21 05:44:07;;;;;;;9.90;5.00;;;;;;;21.12;82.50;99439.47;6272345;28;20041;-57
2021/06/21 05:47:08;;;;;;;11.23;4.87;;;;;;;21.20;82.43;99443.09;6272839;28;20411;-57
2021/06/21 05:50:09;;;;;;;8.17;4.50;;;;;;;21.31;81.66;99448.81;6274062;28;20052;-53
2021/06/21 05:53:10;;;;;;;14.88;4.63;;;;;;;21.43;83.87;99451.06;6273764;28;20052;-55
2021/06/21 05:56:12;;;;;;;5.47;4.73;;;;;;;21.46;82.03;99448.88;6273345;28;20049;-56
2021/06/21 05:59:13;;;;;;;10.30;5.30;;;;;;;21.60;79.30;99443.78;6272562;28;20407;-55
2021/06/21 06:02:14;;;;;;;5.97;4.43;;;;;;;21.65;78.98;99436.91;6272588;28;20103;-56
2021/06/21 06:05:16;;;;;;;8.83;4.63;;;;;;;21.78;79.81;99443.44;6248917;28;20041;-55
2021/06/21 06:08:17;;;;;;;;;;;;;;;21.91;78.43;99441.00;6249218;28;20504;-56
2021/06/21 06:11:18;;;;;;;6.07;4.72;;;;;;;22.03;78.68;99449.31;6248827;28;19932;-56
2021/06/21 06:14:19;;;;;;;11.30;5.00;;;;;;;22.15;76.43;99445.22;6264168;28;20543;-56
2021/06/21 06:17:19;;;;;;;10.57;5.70;;;;;;;22.32;75.70;99445.88;6257487;28;20041;-56
2021/06/21 06:20:20;;;;;;;10.23;5.87;;;;;;;22.39;75.50;99446.78;6255286;28;20155;-56
2021/06/21 06:23:21;;;;;;;12.50;5.80;;;;;;;22.47;74.23;99445.88;6273209;28;20040;-56
2021/06/21 06:26:21;;;;;;;12.30;6.50;;;;;;;22.52;74.82;99448.78;6273052;28;20045;-56
2021/06/21 06:29:22;;;;;;;12.20;6.00;;;;;;;22.60;73.09;99451.34;6271767;28;20130;-56
2021/06/21 06:32:23;;;;;;;15.70;5.83;;;;;;;22.67;74.83;99446.09;6271754;28;20045;-57
2021/06/21 06:35:24;;;;;;;20.93;5.27;;;;;;;22.78;75.87;99440.31;6271602;28;20340;-57
2021/06/21 06:38:25;;;;;;;9.77;5.83;;;;;;;22.87;72.35;99446.31;6271484;28;20049;-57
2021/06/21 06:41:26;;;;;;;10.83;5.10;;;;;;;22.97;73.56;99446.03;6258064;28;20473;-57
2021/06/21 06:44:26;;;;;;;15.87;5.37;;;;;;;23.06;72.20;99445.75;6268612;28;20040;-57
2021/06/21 06:47:27;;;;;;;11.77;6.17;;;;;;;;;;6270685;28;20055;-56
2021/06/21 06:50:29;;;;;;;14.52;5.32;;;;;;;23.22;72.24;99434.00;6272188;28;20043;-55
2021/06/21 06:53:41;;;;;;;7.53;5.38;;;;;;;23.36;70.38;99432.31;6272082;28;20041;-56
2021/06/21 06:57:03;;;;;;;10.65;4.97;;;;;;;23.52;72.12;99433.88;6255931;28;20553;-57
2021/06/21 07:00:09;;;;;;;13.50;5.15;;;;;;;23.61;72.29;99434.56;6271963;28;20052;-57
2021/06/21 07:03:10;;;;;;;9.88;4.82;;;;;;;23.72;72.51;99440.19;6253721;28;20247;-57
2021/06/21 07:06:12;;;;;;;15.48;5.75;;;;;;;23.84;70.44;99445.81;6270587;28;20044;-56
2021/06/21 07:09:13;;;;;;;11.52;4.78;;;;;;;23.96;70.59;99450.59;6254161;28;20368;-57
2021/06/21 07:12:13;;;;;;;8.02;4.97;;;;;;;24.03;70.45;99452.31;6270510;28;20037;-57
2021/06/21 07:15:15;;;;;;;11.23;6.07;;;;;;;24.05;68.13;99450.25;6271609;28;20041;-57
2021/06/21 07:18:15;;;;;;;7.88;4.65;;;;;;;24.06;71.03;99451.06;6271649;28;20637;-58
2021/06/21 07:21:16;;;;;;;9.15;5.45;;;;;;;24.17;71.73;99452.38;6270331;28;20052;-57
2021/06/21 07:24:18;;;;;;;8.80;4.90;;;;;;;24.27;70.23;99456.31;6271509;28;20052;-58
2021/06/21 07:27:18;;;;;;;10.13;5.03;;;;;;;24.30;69.27;99455.13;6271372;28;20045;-57
2021/06/21 07:30:19;;;;;;;10.47;5.30;;;;;;;24.35;70.21;99463.34;6271397;28;20064;-57
2021/06/21 07:33:20;;;;;;;5.95;4.70;;;;;;;24.48;70.58;99459.91;6270018;28;20043;-56
2021/06/21 07:36:21;;;;;;;13.37;5.23;;;;;;;24.54;68.24;99456.47;6271162;28;20037;-58
2021/06/21 07:39:22;;;;;;;15.05;5.70;;;;;;;24.58;69.23;99467.56;6271288;28;20365;-58
2021/06/21 07:42:23;;;;;;;10.17;5.13;;;;;;;24.64;69.40;99466.78;6269888;28;20045;-57
2021/06/21 07:45:23;;;;;;;7.80;5.37;;;;;;;24.69;70.67;99461.69;6271588;28;20121;-56
2021/06/21 07:48:24;;;;;;;8.60;5.20;;;;;;;24.77;69.63;99448.16;6271140;28;20286;-56
2021/06/21 07:51:25;;;;;;;14.43;4.97;;;;;;;24.91;69.63;99449.00;6271021;28;20076;-56
2021/06/21 07:54:26;;;;;;;14.10;5.00;;;;;;;25.02;68.72;99455.59;6270898;28;20053;-57
2021/06/21 07:57:28;;;;;;;9.70;4.50;;;;;;;25.03;67.71;99452.72;6270699;28;20306;-56
2021/06/21 08:00:29;;;;;;;15.60;5.97;;;;;;;25.05;66.38;99456.00;6270744;28;20060;-57
2021/06/21 08:03:30;;;;;;;;;;;;;;;25.09;64.78;99456.44;6270273;28;20049;-57
2021/06/21 08:06:31;;;;;;;14.00;5.50;;;;;;;25.17;65.57;99445.56;6270830;28;19955;-57
2021/06/21 08:09:32;;;;;;;11.73;4.43;;;;;;;25.25;66.40;99452.59;6270673;28;20049;-57
2021/06/21 08:12:33;;;;;;;15.27;5.45;;;;;;;25.28;62.86;99449.50;6271027;28;20388;-57
2021/06/21 08:15:33;;;;;;;10.77;4.80;;;;;;;25.19;63.27;99446.19;6274743;28;20071;-57
2021/06/21 08:18:35;;;;;;;9.90;4.57;;;;;;;25.29;67.63;99449.31;6275866;28;20048;-56
2021/06/21 08:21:35;;;;;;;7.95;4.30;;;;;;;25.38;66.19;99443.78;6275628;28;20053;-57
2021/06/21 08:24:38;;;;;;;6.67;3.93;;;;;;;25.46;65.89;99443.56;6275758;28;20037;-57
2021/06/21 08:27:38;;;;;;;9.50;4.53;;;;;;;25.57;63.68;99440.25;6275429;28;20281;-58
2021/06/21 08:30:40;;;;;;;7.63;3.90;;;;;;;25.61;64.82;99440.69;6275606;28;20395;-57
2021/06/21 08:33:41;;;;;;;10.00;4.90;;;;;;;25.64;61.97;99440.28;6275387;28;20045;-58
2021/06/21 08:36:42;;;;;;;11.32;3.95;;;;;;;25.79;65.12;99451.56;6275303;28;20071;-57
2021/06/21 08:39:43;;;;;;;7.53;3.97;;;;;;;25.91;65.19;99449.94;6275422;28;20041;-57
2021/06/21 08:42:44;;;;;;;8.85;4.10;;;;;;;25.99;62.79;99437.38;6273997;28;20045;-55
2021/06/21 08:45:45;;;;;;;12.52;4.78;;;;;;;26.06;61.60;99446.19;6275146;28;20041;-56
2021/06/21 08:48:47;;;;;;;7.03;3.58;;;;;;;26.11;62.93;99444.56;6275172;28;20045;-56
2021/06/21 08:51:52;;;;;;;;;;;;;;;26.18;60.79;99447.19;6274418;28;20056;-56
2021/06/21 08:54:53;;;;;;;9.88;4.32;;;;;;;26.27;59.13;99455.81;6273635;28;19944;-56
2021/06/21 08:57:54;;;;;;;;;;;;;;;26.36;62.46;99451.88;6273912;28;20079;-56
2021/06/21 09:00:55;;;;;;;14.83;4.20;;;;;;;26.42;61.00;99453.72;6274752;28;19920;-58
2021/06/21 09:03:56;;;;;;;15.38;3.65;;;;;;;26.45;59.78;99449.78;6274972;28;20052;-57
2021/06/21 09:07:18;;;;;;;6.95;3.75;;;;;;;26.46;57.68;99444.22;6274824;28;20106;-57
2021/06/21 09:10:24;;;;;;;8.00;3.95;;;;;;;26.50;59.03;99448.13;6274830;28;20398;-57
2021/06/21 09:13:31;;;;;;;9.05;3.60;;;;;;;26.56;57.24;99446.44;6274770;28;20052;-57
2021/06/21 09:16:44;;;;;;;10.20;3.97;;;;;;;26.68;58.36;99446.63;6273359;28;20052;-57
2021/06/21 09:20:03;;;;;;;11.75;3.80;;;;;;;26.89;57.72;99448.16;6274387;28;20045;-58
2021/06/21 09:23:04;;;;;;;8.02;3.53;;;;;;;26.93;58.59;99441.34;6274658;28;20179;-57
2021/06/21 09:26:16;;;;;;;12.52;3.70;;;;;;;27.02;59.10;99437.38;6273405;28;20037;-57
2021/06/21 09:29:17;;;;;;;6.65;3.47;;;;;;;27.05;58.49;99441.47;6273035;28;20045;-57
2021/06/21 09:32:19;;;;;;;5.50;3.25;;;;;;;27.09;56.54;99437.31;6274079;28;20049;-57
2021/06/21 09:35:25;;;;;;;10.75;3.80;;;;;;;27.13;56.39;99433.19;6273001;28;20411;-57
2021/06/21 09:38:26;;;;;;;10.25;3.08;;;;;;;27.16;55.70;99439.94;6273866;28;20045;-57
2021/06/21 09:41:27;;;;;;;9.13;3.38;;;;;;;27.33;54.31;99441.09;6274112;28;20276;-56
2021/06/21 09:44:34;;;;;;;15.43;3.50;;;;;;;27.47;55.38;99434.59;6273808;28;20045;-55
2021/06/21 09:47:37;;;;;;;11.35;3.10;;;;;;;27.54;56.93;99432.69;6272464;28;20331;-56
2021/06/21 09:50:38;;;;;;;9.10;3.08;;;;;;;27.62;52.12;99425.41;6272527;28;20138;-56
2021/06/21 09:53:39;;;;;;;11.18;3.17;;;;;;;27.67;53.33;99431.72;6273693;28;20044;-57
2021/06/21 09:56:48;;;;;;;8.32;2.88;;;;;;;27.72;53.21;99433.78;6273201;28;20155;-56
2021/06/21 09:59:49;;;;;;;8.05;2.70;;;;;;;27.80;53.33;99433.50;6273655;28;20053;-56
2021/06/21 10:03:05;;;;;;;8.68;2.75;;;;;;;27.90;53.01;99431.16;6273507;28;20122;-56
2021/06/21 10:06:07;;;;;;;7.03;2.65;;;;;;;28.01;53.71;99426.09;6273307;28;20041;-55
2021/06/21 10:09:08;;;;;;;11.80;2.72;;;;;;;28.17;52.04;99428.19;6273343;28;20044;-56
2021/06/21 10:12:19;;;;;;;14.38;2.78;;;;;;;28.31;53.73;99431.50;6273208;28;20040;-57
2021/06/21 10:15:20;;;;;;;11.18;3.08;;;;;;;28.23;52.80;99429.13;6273120;28;20106;-58
2021/06/21 10:18:21;;;;;;;16.52;3.33;;;;;;;28.19;52.77;99423.41;6271686;28;20447;-58
2021/06/21 10:21:23;;;;;;;7.82;2.90;;;;;;;28.11;50.53;99429.88;6272012;28;20049;-57
2021/06/21 10:24:30;;;;;;;7.68;2.50;;;;;;;28.22;51.07;99430.19;6271683;28;20041;-57
2021/06/21 10:27:32;;;;;;;9.13;2.70;;;;;;;28.30;50.15;99425.31;6272853;28;20071;-58
2021/06/21 10:30:33;;;;;;;9.98;2.85;;;;;;;28.29;51.83;99426.38;6273204;28;20097;-57
2021/06/21 10:33:34;;;;;;;9.75;2.78;;;;;;;28.38;50.09;99418.84;6272734;28;20033;-58
2021/06/21 10:36:54;;;;;;;;;;;;;;;28.44;51.02;99414.44;6272045;28;20048;-58
2021/06/21 10:40:09;;;;;;;14.57;2.95;;;;;;;28.46;51.74;99413.16;6272520;28;19920;-58
2021/06/21 10:43:10;;;;;;;17.20;2.70;;;;;;;28.58;52.06;99415.94;6272456;28;20060;-59
2021/06/21 10:46:31;;;;;;;17.65;3.10;;;;;;;28.67;49.22;99408.38;6254842;28;20053;-58
2021/06/21 10:49:32;;;;;;;;;;;;;;;28.76;53.49;99403.50;6271422;28;20392;-59
2021/06/21 10:52:37;;;;;;;14.93;3.17;;;;;;;28.89;50.54;99408.69;6271029;28;19982;-58
2021/06/21 10:55:40;;;;;;;6.65;2.85;;;;;;;28.94;49.18;99403.44;6271913;28;20041;-58
2021/06/21 10:58:41;;;;;;;13.43;2.80;;;;;;;29.00;49.60;99405.22;6254327;28;20524;-58
2021/06/21 11:01:48;;;;;;;9.85;2.78;;;;;;;29.09;48.63;99401.13;6272098;28;20052;-58
2021/06/21 11:04:49;;;;;;;12.23;2.80;;;;;;;29.21;47.72;99406.56;6272121;28;20045;-57
2021/06/21 11:08:16;;;;;;;19.20;3.45;;;;;;;29.22;49.04;99393.94;6254947;28;20037;-58
2021/06/21 11:11:35;;;;;;;11.88;3.05;;;;;;;29.22;46.18;99399.31;6272626;28;20056;-58
2021/06/21 11:14:37;;;;;;;9.35;2.80;;;;;;;29.43;48.09;99397.97;6272571;28;20037;-58
2021/06/21 11:17:48;;;;;;;10.10;2.80;;;;;;;29.53;46.09;99387.44;6272470;28;20043;-58
2021/06/21 11:20:49;;;;;;;8.75;2.75;;;;;;;29.50;45.07;99383.34;6272647;28;20148;-58
2021/06/21 11:23:52;;;;;;;11.60;2.90;;;;;;;29.51;46.08;99386.88;6272463;28;20093;-58
2021/06/21 11:27:18;;;;;;;8.27;2.80;;;;;;;29.46;44.80;99386.72;6272346;28;20052;-58
2021/06/21 11:30:26;;;;;;;9.98;2.60;;;;;;;29.70;45.00;99392.94;6272640;28;20055;-58
2021/06/21 11:33:53;;;;;;;11.73;3.00;;;;;;;29.91;46.65;99389.66;6272325;28;20072;-58
2021/06/21 11:36:54;;;;;;;8.65;3.08;;;;;;;30.05;43.13;99392.09;6271056;28;20056;-57
2021/06/21 11:40:19;;;;;;;6.03;2.70;;;;;;;30.02;41.43;99387.16;6272040;28;20057;-57
2021/06/21 11:43:19;;;;;;;7.10;2.90;;;;;;;30.13;43.55;99389.84;6268224;28;20412;-58
2021/06/21 11:46:42;;;;;;;8.70;2.50;;;;;;;30.22;42.50;99392.97;6270448;28;20110;-57
2021/06/21 11:49:44;;;;;;;8.45;2.78;;;;;;;30.46;41.88;99385.69;6270301;28;20532;-58
2021/06/21 11:52:48;;;;;;;7.70;2.65;;;;;;;30.07;43.20;99382.72;6270792;28;20132;-58
2021/06/21 11:55:49;;;;;;;8.63;2.67;;;;;;;30.26;42.75;99390.63;6271655;28;20076;-58
2021/06/21 11:58:51;;;;;;;;;;;;;;;30.35;41.98;99378.44;6270872;28;20053;-58
2021/06/21 12:02:27;;;;;;;7.85;2.67;;;;;;;30.60;43.11;99379.97;6271721;28;19943;-58
2021/06/21 12:05:29;;;;;;;6.82;3.00;;;;;;;30.67;42.89;99378.78;6244398;28;20061;-59
2021/06/21 12:08:36;;;;;;;9.73;2.72;;;;;;;30.85;42.67;99369.69;6271147;28;20415;-58
2021/06/21 12:11:39;;;;;;;7.00;2.75;;;;;;;31.13;41.54;99370.69;6271775;28;20041;-59
2021/06/21 12:14:44;;;;;;;9.13;2.78;;;;;;;31.61;42.45;99373.84;6270372;28;20041;-58
2021/06/21 12:17:46;;;;;;;9.38;2.70;;;;;;;31.90;40.87;99369.94;6271461;28;20037;-58
2021/06/21 12:20:47;;;;;;;14.18;2.53;;;;;;;33.07;39.73;99366.06;6270398;28;20102;-58
2021/06/21 12:23:48;;;;;;;11.27;2.53;;;;;;;34.37;35.81;99363.81;6271569;28;20411;-59
2021/06/21 12:26:54;;;;;;;7.43;2.13;;;;;;;34.83;33.09;99366.63;6271443;28;20041;-59
2021/06/21 12:29:56;;;;;;;7.90;2.40;;;;;;;33.11;34.51;99368.03;6270183;28;20041;-59
2021/06/21 12:32:56;;;;;;;13.43;2.90;;;;;;;33.44;35.32;99360.69;6271454;28;20049;-58
2021/06/21 12:36:16;;;;;;;9.95;2.55;;;;;;;34.96;32.70;99362.56;6271425;28;20052;-58
2021/06/21 12:39:17;;;;;;;8.65;2.55;;;;;;;34.25;33.91;99362.19;6271344;28;20049;-59
2021/06/21 12:42:19;;;;;;;7.50;2.22;;;;;;;34.29;34.78;99367.88;6271333;28;20072;-58
2021/06/21 12:45:22;;;;;;;10.45;2.72;;;;;;;33.85;33.98;99366.34;6271235;28;20466;-59
2021/06/21 12:48:23;;;;;;;6.13;2.25;;;;;;;33.05;33.72;99363.63;6270109;28;20380;-59
2021/06/21 12:51:24;;;;;;;5.53;2.35;;;;;;;32.58;34.77;99369.69;6271106;28;20040;-57
2021/06/21 12:54:25;;;;;;;10.00;2.63;;;;;;;32.74;36.34;99365.25;6270534;28;20064;-60
2021/06/21 12:57:54;;;;;;;7.72;2.78;;;;;;;31.96;38.74;99368.13;6269464;28;20049;-59
2021/06/21 13:00:59;;;;;;;5.75;2.60;;;;;;;32.16;37.86;99366.78;6272292;28;20064;-58
2021/06/21 13:04:14;;;;;;;7.25;2.20;;;;;;;32.17;40.22;99363.81;6275792;28;20052;-59
2021/06/21 13:07:24;;;;;;;8.60;2.58;;;;;;;32.26;36.12;99361.50;6274276;28;20110;-59
2021/06/21 13:10:24;;;;;;;6.35;2.40;;;;;;;32.49;36.64;99368.47;6275647;28;20041;-58
2021/06/21 13:13:40;;;;;;;10.68;2.90;;;;;;;32.59;35.48;99362.41;6275416;28;20106;-58
2021/06/21 13:16:41;;;;;;;8.13;2.22;;;;;;;32.44;35.61;99358.44;6275152;28;20045;-58
2021/06/21 13:19:45;;;;;;;10.30;2.63;;;;;;;32.51;36.48;99361.78;6257606;28;20095;-58
2021/06/21 13:22:52;;;;;;;6.25;2.50;;;;;;;32.16;34.57;99351.38;6275115;28;20068;-58
2021/06/21 13:25:54;;;;;;;8.88;2.90;;;;;;;32.20;35.65;99351.72;6275245;28;20044;-58
2021/06/21 13:28:55;;;;;;;7.47;2.40;;;;;;;32.13;35.04;99351.91;6275240;28;20349;-57
2021/06/21 13:31:59;;;;;;;6.90;2.40;;;;;;;31.98;35.41;99336.34;6275027;28;20461;-57
2021/06/21 13:35:11;;;;;;;8.48;2.50;;;;;;;32.01;38.88;99332.34;6275084;28;20041;-58
2021/06/21 13:38:16;;;;;;;10.18;2.63;;;;;;;31.76;36.05;99339.03;6274855;28;20057;-57
2021/06/21 13:41:23;;;;;;;9.95;2.60;;;;;;;31.81;36.57;99330.16;6274864;28;20495;-57
2021/06/21 13:44:24;;;;;;;9.75;2.60;;;;;;;31.86;36.04;99333.75;6274762;28;20045;-59
2021/06/21 13:47:43;;;;;;;14.25;2.53;;;;;;;31.87;38.40;99343.47;6257097;28;20529;-59
2021/06/21 13:50:59;;;;;;;5.45;2.22;;;;;;;31.90;37.05;99336.78;6274849;28;20039;-58
2021/06/21 13:54:08;;;;;;;14.88;2.70;;;;;;;31.89;36.14;99325.16;6274668;28;20052;-58
2021/06/21 13:57:10;;;;;;;7.35;2.75;;;;;;;31.91;37.11;99327.59;6274257;28;20625;-58
2021/06/21 14:00:32;;;;;;;5.85;2.67;;;;;;;31.84;35.49;99332.38;6274422;28;20049;-59
2021/06/21 14:03:33;;;;;;;5.57;2.10;;;;;;;32.01;37.77;99329.66;6274290;28;20052;-58
2021/06/21 14:06:35;;;;;;;;;;;;;;;32.05;38.39;99331.56;6274746;28;20045;-58
2021/06/21 14:09:36;;;;;;;8.15;3.10;;;;;;;32.03;37.77;99325.63;6274193;28;19928;-58
2021/06/21 14:12:37;;;;;;;;;;;;;;;32.00;39.31;99333.38;6274372;28;20041;-59
2021/06/21 14:15:37;;;;;;;8.40;2.58;;;;;;;31.97;35.90;99328.47;6274035;28;19964;-58
2021/06/21 14:18:38;;;;;;;;;;;;;;;31.99;36.77;99331.75;6273108;28;20484;-59
2021/06/21 14:21:41;;;;;;;7.57;2.22;;;;;;;32.00;36.53;99330.69;6273905;28;20364;-58
2021/06/21 14:24:42;;;;;;;8.93;2.40;;;;;;;31.82;37.42;99326.44;6273832;28;20132;-58
2021/06/21 14:27:42;;;;;;;;;;;;;;;31.80;36.83;99325.88;6274149;28;20049;-58